Flugplatz Fassberg Airport

Bericht für ETHS

vom 23.08. um 13:20 UTC

Wind 4 kt aus 260°

Sichtweite 10 km oder mehr

aufgebrochene Bewölkung in 35000 ft

Temperatur 27.0°C

Taupunkt 7.0°C

Luftfeuchtigkeit 28%

Luftdruck 1025 hPa

ETHS 231320Z 26004KT 9999 BKN350 27/07 Q1025 BLU+
Keine Prognose (TAF) verfügbar.
Impressum